sensor_id;sensor_type;location;lat;lon;timestamp;temperature;humidity
11091;DHT22;5599;52.210;21.046;2023-04-03T00:01:46;3.00;1.00
11091;DHT22;5599;52.210;21.046;2023-04-03T00:04:18;3.00;1.00
11091;DHT22;5599;52.210;21.046;2023-04-03T00:06:47;2.90;1.00
11091;DHT22;5599;52.210;21.046;2023-04-03T00:09:16;2.90;1.00
11091;DHT22;5599;52.210;21.046;2023-04-03T00:11:47;2.90;1.00
11091;DHT22;5599;52.210;21.046;2023-04-03T00:14:17;2.90;1.00
11091;DHT22;5599;52.210;21.046;2023-04-03T00:16:46;2.80;1.00
11091;DHT22;5599;52.210;21.046;2023-04-03T00:19:15;2.80;1.00
11091;DHT22;5599;52.210;21.046;2023-04-03T00:21:44;2.70;99.90
11091;DHT22;5599;52.210;21.046;2023-04-03T00:24:14;2.70;1.00
11091;DHT22;5599;52.210;21.046;2023-04-03T00:26:43;2.70;1.00
11091;DHT22;5599;52.210;21.046;2023-04-03T00:29:15;2.70;1.00
11091;DHT22;5599;52.210;21.046;2023-04-03T00:31:44;2.60;1.00
11091;DHT22;5599;52.210;21.046;2023-04-03T00:34:14;2.50;1.00
11091;DHT22;5599;52.210;21.046;2023-04-03T00:36:43;2.50;1.00
11091;DHT22;5599;52.210;21.046;2023-04-03T00:39:13;2.40;1.00
11091;DHT22;5599;52.210;21.046;2023-04-03T00:41:42;2.40;1.00
11091;DHT22;5599;52.210;21.046;2023-04-03T00:44:22;2.40;1.00
11091;DHT22;5599;52.210;21.046;2023-04-03T00:46:52;2.40;1.00
11091;DHT22;5599;52.210;21.046;2023-04-03T00:49:21;2.40;1.00
11091;DHT22;5599;52.210;21.046;2023-04-03T00:51:51;2.30;1.00
11091;DHT22;5599;52.210;21.046;2023-04-03T00:54:20;2.40;1.00
11091;DHT22;5599;52.210;21.046;2023-04-03T00:56:51;2.30;1.00
11091;DHT22;5599;52.210;21.046;2023-04-03T00:59:26;2.30;1.00
11091;DHT22;5599;52.210;21.046;2023-04-03T01:01:56;2.20;1.00
11091;DHT22;5599;52.210;21.046;2023-04-03T01:04:28;2.20;1.00
11091;DHT22;5599;52.210;21.046;2023-04-03T01:07:01;2.20;1.00
11091;DHT22;5599;52.210;21.046;2023-04-03T01:09:33;2.10;1.00
11091;DHT22;5599;52.210;21.046;2023-04-03T01:12:18;2.00;1.00
11091;DHT22;5599;52.210;21.046;2023-04-03T01:14:51;2.00;1.00
11091;DHT22;5599;52.210;21.046;2023-04-03T01:17:28;2.00;1.00
11091;DHT22;5599;52.210;21.046;2023-04-03T01:22:58;2.00;1.00
11091;DHT22;5599;52.210;21.046;2023-04-03T01:25:29;1.90;1.00
11091;DHT22;5599;52.210;21.046;2023-04-03T01:27:59;1.90;1.00
11091;DHT22;5599;52.210;21.046;2023-04-03T01:30:34;1.90;1.00
11091;DHT22;5599;52.210;21.046;2023-04-03T01:33:06;1.90;1.00
11091;DHT22;5599;52.210;21.046;2023-04-03T01:35:35;1.90;1.00
11091;DHT22;5599;52.210;21.046;2023-04-03T01:38:05;1.80;1.00
11091;DHT22;5599;52.210;21.046;2023-04-03T01:40:34;1.80;38.70
11091;DHT22;5599;52.210;21.046;2023-04-03T01:43:05;1.80;1.00
11091;DHT22;5599;52.210;21.046;2023-04-03T01:45:34;1.70;37.70
11091;DHT22;5599;52.210;21.046;2023-04-03T01:48:04;1.70;1.00
11091;DHT22;5599;52.210;21.046;2023-04-03T01:50:35;1.70;21.80
11091;DHT22;5599;52.210;21.046;2023-04-03T01:53:05;1.70;1.00
11091;DHT22;5599;52.210;21.046;2023-04-03T01:55:35;1.60;1.00
11091;DHT22;5599;52.210;21.046;2023-04-03T01:58:04;1.60;7.20
11091;DHT22;5599;52.210;21.046;2023-04-03T02:00:33;1.70;1.00
11091;DHT22;5599;52.210;21.046;2023-04-03T02:03:04;1.60;1.00
11091;DHT22;5599;52.210;21.046;2023-04-03T02:05:36;1.60;99.90
11091;DHT22;5599;52.210;21.046;2023-04-03T02:08:05;1.60;1.00
11091;DHT22;5599;52.210;21.046;2023-04-03T02:10:35;1.50;1.00
11091;DHT22;5599;52.210;21.046;2023-04-03T02:13:06;1.50;1.00
11091;DHT22;5599;52.210;21.046;2023-04-03T02:15:38;1.50;88.00
11091;DHT22;5599;52.210;21.046;2023-04-03T02:18:07;1.40;99.90
11091;DHT22;5599;52.210;21.046;2023-04-03T02:20:38;1.40;99.90
11091;DHT22;5599;52.210;21.046;2023-04-03T02:23:07;1.30;99.90
11091;DHT22;5599;52.210;21.046;2023-04-03T02:25:37;1.30;54.00
11091;DHT22;5599;52.210;21.046;2023-04-03T02:28:06;1.30;99.90
11091;DHT22;5599;52.210;21.046;2023-04-03T02:30:35;1.20;99.90
11091;DHT22;5599;52.210;21.046;2023-04-03T02:33:05;1.20;1.00
11091;DHT22;5599;52.210;21.046;2023-04-03T02:35:35;1.20;99.90
11091;DHT22;5599;52.210;21.046;2023-04-03T02:38:06;1.20;99.90
11091;DHT22;5599;52.210;21.046;2023-04-03T02:40:35;1.20;1.00
11091;DHT22;5599;52.210;21.046;2023-04-03T02:43:05;1.20;99.90
11091;DHT22;5599;52.210;21.046;2023-04-03T02:45:37;1.20;99.90
11091;DHT22;5599;52.210;21.046;2023-04-03T02:48:06;1.10;99.90
11091;DHT22;5599;52.210;21.046;2023-04-03T02:50:36;1.10;99.90
11091;DHT22;5599;52.210;21.046;2023-04-03T02:53:07;1.10;99.90
11091;DHT22;5599;52.210;21.046;2023-04-03T02:55:36;1.10;99.90
11091;DHT22;5599;52.210;21.046;2023-04-03T02:58:05;1.10;99.90
11091;DHT22;5599;52.210;21.046;2023-04-03T03:00:36;1.00;99.90
11091;DHT22;5599;52.210;21.046;2023-04-03T03:03:06;1.00;1.00
11091;DHT22;5599;52.210;21.046;2023-04-03T03:05:35;1.00;1.00
11091;DHT22;5599;52.210;21.046;2023-04-03T03:08:07;1.00;1.00
11091;DHT22;5599;52.210;21.046;2023-04-03T03:10:36;0.90;1.00
11091;DHT22;5599;52.210;21.046;2023-04-03T03:13:07;0.90;1.00
11091;DHT22;5599;52.210;21.046;2023-04-03T03:15:36;0.90;1.00
11091;DHT22;5599;52.210;21.046;2023-04-03T03:18:05;0.90;1.00
11091;DHT22;5599;52.210;21.046;2023-04-03T03:20:35;0.80;1.00
11091;DHT22;5599;52.210;21.046;2023-04-03T03:23:05;0.80;99.90
11091;DHT22;5599;52.210;21.046;2023-04-03T03:25:37;0.80;1.00
11091;DHT22;5599;52.210;21.046;2023-04-03T03:28:07;0.80;31.30
11091;DHT22;5599;52.210;21.046;2023-04-03T03:30:37;0.80;1.00
11091;DHT22;5599;52.210;21.046;2023-04-03T03:33:06;0.70;60.30
11091;DHT22;5599;52.210;21.046;2023-04-03T03:35:36;0.70;99.90
11091;DHT22;5599;52.210;21.046;2023-04-03T03:38:05;0.70;99.90
11091;DHT22;5599;52.210;21.046;2023-04-03T03:40:36;0.70;99.90
11091;DHT22;5599;52.210;21.046;2023-04-03T03:43:06;0.70;99.90
11091;DHT22;5599;52.210;21.046;2023-04-03T03:45:36;0.60;77.00
11091;DHT22;5599;52.210;21.046;2023-04-03T03:48:06;0.60;35.60
11091;DHT22;5599;52.210;21.046;2023-04-03T03:50:35;0.60;99.90
11091;DHT22;5599;52.210;21.046;2023-04-03T03:53:04;0.60;99.90
11091;DHT22;5599;52.210;21.046;2023-04-03T03:55:35;0.50;99.90
11091;DHT22;5599;52.210;21.046;2023-04-03T03:58:05;0.60;99.90
11091;DHT22;5599;52.210;21.046;2023-04-03T04:00:35;0.60;99.90
11091;DHT22;5599;52.210;21.046;2023-04-03T04:03:04;0.60;99.90
11091;DHT22;5599;52.210;21.046;2023-04-03T04:05:33;0.60;99.90
11091;DHT22;5599;52.210;21.046;2023-04-03T04:08:03;0.50;1.00
11091;DHT22;5599;52.210;21.046;2023-04-03T04:10:33;0.50;1.00
11091;DHT22;5599;52.210;21.046;2023-04-03T04:13:04;0.40;1.00
11091;DHT22;5599;52.210;21.046;2023-04-03T04:15:34;0.40;1.00
11091;DHT22;5599;52.210;21.046;2023-04-03T04:18:04;0.50;1.00
11091;DHT22;5599;52.210;21.046;2023-04-03T04:20:34;0.50;99.90
11091;DHT22;5599;52.210;21.046;2023-04-03T04:23:03;0.60;1.00
11091;DHT22;5599;52.210;21.046;2023-04-03T04:25:32;0.50;99.90
11091;DHT22;5599;52.210;21.046;2023-04-03T04:28:04;0.40;99.90
11091;DHT22;5599;52.210;21.046;2023-04-03T04:30:33;0.40;99.90
11091;DHT22;5599;52.210;21.046;2023-04-03T04:33:03;0.40;1.00
11091;DHT22;5599;52.210;21.046;2023-04-03T04:35:34;0.40;1.00
11091;DHT22;5599;52.210;21.046;2023-04-03T04:38:04;0.40;99.90
11091;DHT22;5599;52.210;21.046;2023-04-03T04:40:33;0.50;99.90
11091;DHT22;5599;52.210;21.046;2023-04-03T04:43:05;0.50;99.90
11091;DHT22;5599;52.210;21.046;2023-04-03T04:45:35;0.50;99.90
11091;DHT22;5599;52.210;21.046;2023-04-03T04:48:05;0.50;1.00
11091;DHT22;5599;52.210;21.046;2023-04-03T04:50:34;0.50;99.90
11091;DHT22;5599;52.210;21.046;2023-04-03T04:53:03;0.50;1.00
11091;DHT22;5599;52.210;21.046;2023-04-03T04:55:33;0.50;99.90
11091;DHT22;5599;52.210;21.046;2023-04-03T04:58:04;0.60;99.90
11091;DHT22;5599;52.210;21.046;2023-04-03T05:00:35;0.60;99.90
11091;DHT22;5599;52.210;21.046;2023-04-03T05:03:04;0.60;99.90
11091;DHT22;5599;52.210;21.046;2023-04-03T05:05:34;1.00;1.00
11091;DHT22;5599;52.210;21.046;2023-04-03T05:08:03;2.20;99.90
11091;DHT22;5599;52.210;21.046;2023-04-03T05:10:33;3.70;99.90
11091;DHT22;5599;52.210;21.046;2023-04-03T05:13:04;4.80;99.90
11091;DHT22;5599;52.210;21.046;2023-04-03T05:15:34;5.70;99.90
11091;DHT22;5599;52.210;21.046;2023-04-03T05:18:04;5.90;99.90
11091;DHT22;5599;52.210;21.046;2023-04-03T05:20:34;6.10;99.90
11091;DHT22;5599;52.210;21.046;2023-04-03T05:23:05;6.60;99.90
11091;DHT22;5599;52.210;21.046;2023-04-03T05:25:37;7.00;99.90
11091;DHT22;5599;52.210;21.046;2023-04-03T05:28:09;8.00;99.90
11091;DHT22;5599;52.210;21.046;2023-04-03T05:30:38;9.10;1.00
11091;DHT22;5599;52.210;21.046;2023-04-03T05:33:08;9.00;1.00
11091;DHT22;5599;52.210;21.046;2023-04-03T05:35:44;8.90;1.00
11091;DHT22;5599;52.210;21.046;2023-04-03T05:38:18;8.90;1.00
11091;DHT22;5599;52.210;21.046;2023-04-03T05:40:48;8.60;1.00
11091;DHT22;5599;52.210;21.046;2023-04-03T05:43:19;7.40;1.00
11091;DHT22;5599;52.210;21.046;2023-04-03T05:45:51;6.30;1.00
11091;DHT22;5599;52.210;21.046;2023-04-03T05:48:23;5.70;1.00
11091;DHT22;5599;52.210;21.046;2023-04-03T05:50:53;4.50;1.00
11091;DHT22;5599;52.210;21.046;2023-04-03T05:53:28;4.40;1.00
11091;DHT22;5599;52.210;21.046;2023-04-03T05:56:02;4.10;1.00
11091;DHT22;5599;52.210;21.046;2023-04-03T05:58:37;4.50;1.00
11091;DHT22;5599;52.210;21.046;2023-04-03T06:01:06;4.90;1.00
11091;DHT22;5599;52.210;21.046;2023-04-03T06:03:36;4.80;1.00
11091;DHT22;5599;52.210;21.046;2023-04-03T06:06:12;4.90;1.00
11091;DHT22;5599;52.210;21.046;2023-04-03T06:08:43;5.00;1.00
11091;DHT22;5599;52.210;21.046;2023-04-03T06:11:12;5.40;1.00
11091;DHT22;5599;52.210;21.046;2023-04-03T06:13:43;6.50;1.00
11091;DHT22;5599;52.210;21.046;2023-04-03T06:16:18;7.70;1.00
11091;DHT22;5599;52.210;21.046;2023-04-03T06:18:48;8.00;1.00
11091;DHT22;5599;52.210;21.046;2023-04-03T06:21:17;7.40;1.00
11091;DHT22;5599;52.210;21.046;2023-04-03T06:23:46;7.30;1.00
11091;DHT22;5599;52.210;21.046;2023-04-03T06:26:16;7.60;1.00
11091;DHT22;5599;52.210;21.046;2023-04-03T06:37:01;8.20;1.00
11091;DHT22;5599;52.210;21.046;2023-04-03T06:39:31;7.10;1.00
11091;DHT22;5599;52.210;21.046;2023-04-03T06:42:00;6.70;1.00
11091;DHT22;5599;52.210;21.046;2023-04-03T06:44:37;6.80;1.00
11091;DHT22;5599;52.210;21.046;2023-04-03T06:47:06;7.30;1.00
11091;DHT22;5599;52.210;21.046;2023-04-03T06:49:36;7.30;1.00
11091;DHT22;5599;52.210;21.046;2023-04-03T06:52:07;7.80;1.00
11091;DHT22;5599;52.210;21.046;2023-04-03T06:54:37;8.60;1.00
11091;DHT22;5599;52.210;21.046;2023-04-03T06:57:06;9.20;1.00
11091;DHT22;5599;52.210;21.046;2023-04-03T06:59:36;8.00;1.00
11091;DHT22;5599;52.210;21.046;2023-04-03T07:02:06;8.00;1.00
11091;DHT22;5599;52.210;21.046;2023-04-03T07:04:35;8.70;1.00
11091;DHT22;5599;52.210;21.046;2023-04-03T07:07:07;8.50;1.00
11091;DHT22;5599;52.210;21.046;2023-04-03T07:09:37;8.60;1.00
11091;DHT22;5599;52.210;21.046;2023-04-03T07:12:06;8.60;1.00
11091;DHT22;5599;52.210;21.046;2023-04-03T07:14:36;8.80;1.00
11091;DHT22;5599;52.210;21.046;2023-04-03T07:17:05;8.70;1.00
11091;DHT22;5599;52.210;21.046;2023-04-03T07:19:34;8.60;1.00
11091;DHT22;5599;52.210;21.046;2023-04-03T07:22:04;8.10;1.00
11091;DHT22;5599;52.210;21.046;2023-04-03T07:24:35;7.40;1.00
11091;DHT22;5599;52.210;21.046;2023-04-03T07:27:05;7.40;1.00
11091;DHT22;5599;52.210;21.046;2023-04-03T07:29:36;6.70;1.00
11091;DHT22;5599;52.210;21.046;2023-04-03T07:32:05;6.70;1.00
11091;DHT22;5599;52.210;21.046;2023-04-03T07:34:35;7.10;1.00
11091;DHT22;5599;52.210;21.046;2023-04-03T07:37:05;7.10;1.00
11091;DHT22;5599;52.210;21.046;2023-04-03T07:39:36;7.00;1.00
11091;DHT22;5599;52.210;21.046;2023-04-03T07:42:06;6.20;1.00
11091;DHT22;5599;52.210;21.046;2023-04-03T07:44:35;6.10;1.00
11091;DHT22;5599;52.210;21.046;2023-04-03T07:47:04;6.30;1.00
11091;DHT22;5599;52.210;21.046;2023-04-03T07:49:34;6.30;1.00
11091;DHT22;5599;52.210;21.046;2023-04-03T07:52:06;6.50;1.00
11091;DHT22;5599;52.210;21.046;2023-04-03T07:54:38;5.70;1.00
11091;DHT22;5599;52.210;21.046;2023-04-03T07:57:07;5.00;1.00
11091;DHT22;5599;52.210;21.046;2023-04-03T07:59:37;5.00;1.00
11091;DHT22;5599;52.210;21.046;2023-04-03T08:02:09;4.80;1.00
11091;DHT22;5599;52.210;21.046;2023-04-03T08:04:38;4.60;1.00
11091;DHT22;5599;52.210;21.046;2023-04-03T08:07:08;4.80;1.00
11091;DHT22;5599;52.210;21.046;2023-04-03T08:09:39;5.20;1.00
11091;DHT22;5599;52.210;21.046;2023-04-03T08:12:08;4.90;1.00
11091;DHT22;5599;52.210;21.046;2023-04-03T08:14:39;5.10;1.00
11091;DHT22;5599;52.210;21.046;2023-04-03T08:17:09;5.10;1.00
11091;DHT22;5599;52.210;21.046;2023-04-03T08:19:39;5.30;1.00
11091;DHT22;5599;52.210;21.046;2023-04-03T08:22:09;5.90;1.00
11091;DHT22;5599;52.210;21.046;2023-04-03T08:24:40;6.10;1.00
11091;DHT22;5599;52.210;21.046;2023-04-03T08:27:25;5.70;1.00
11091;DHT22;5599;52.210;21.046;2023-04-03T08:29:55;5.20;1.00
11091;DHT22;5599;52.210;21.046;2023-04-03T08:32:25;5.30;1.00
11091;DHT22;5599;52.210;21.046;2023-04-03T08:34:54;5.10;1.00
11091;DHT22;5599;52.210;21.046;2023-04-03T08:37:24;5.30;1.00
11091;DHT22;5599;52.210;21.046;2023-04-03T08:39:55;5.80;1.00
11091;DHT22;5599;52.210;21.046;2023-04-03T08:42:37;5.70;1.00
11091;DHT22;5599;52.210;21.046;2023-04-03T08:45:13;5.80;1.00
11091;DHT22;5599;52.210;21.046;2023-04-03T08:47:48;5.60;1.00
11091;DHT22;5599;52.210;21.046;2023-04-03T08:50:28;5.60;1.00
11091;DHT22;5599;52.210;21.046;2023-04-03T08:53:01;5.50;1.00
11091;DHT22;5599;52.210;21.046;2023-04-03T08:55:37;5.50;1.00
11091;DHT22;5599;52.210;21.046;2023-04-03T08:58:12;5.90;1.00
11091;DHT22;5599;52.210;21.046;2023-04-03T09:00:45;5.70;1.00
11091;DHT22;5599;52.210;21.046;2023-04-03T09:03:17;5.70;1.00
11091;DHT22;5599;52.210;21.046;2023-04-03T09:05:52;5.60;1.00
11091;DHT22;5599;52.210;21.046;2023-04-03T09:08:24;5.10;1.00
11091;DHT22;5599;52.210;21.046;2023-04-03T09:11:07;4.90;1.00
11091;DHT22;5599;52.210;21.046;2023-04-03T09:13:46;4.50;1.00
11091;DHT22;5599;52.210;21.046;2023-04-03T09:16:25;4.70;1.00
11091;DHT22;5599;52.210;21.046;2023-04-03T09:19:03;4.80;1.00
11091;DHT22;5599;52.210;21.046;2023-04-03T09:21:37;4.80;1.00
11091;DHT22;5599;52.210;21.046;2023-04-03T09:24:12;4.80;1.00
11091;DHT22;5599;52.210;21.046;2023-04-03T09:26:47;5.00;1.00
11091;DHT22;5599;52.210;21.046;2023-04-03T09:29:20;5.00;1.00
11091;DHT22;5599;52.210;21.046;2023-04-03T09:31:54;4.90;1.00
11091;DHT22;5599;52.210;21.046;2023-04-03T09:34:27;4.80;1.00
11091;DHT22;5599;52.210;21.046;2023-04-03T09:36:58;4.70;1.00
11091;DHT22;5599;52.210;21.046;2023-04-03T09:39:49;4.70;1.00
11091;DHT22;5599;52.210;21.046;2023-04-03T09:42:21;4.70;1.00
11091;DHT22;5599;52.210;21.046;2023-04-03T09:44:55;4.90;1.00
11091;DHT22;5599;52.210;21.046;2023-04-03T09:47:27;5.00;1.00
11091;DHT22;5599;52.210;21.046;2023-04-03T09:50:18;5.10;1.00
11091;DHT22;5599;52.210;21.046;2023-04-03T09:52:49;5.00;1.00
11091;DHT22;5599;52.210;21.046;2023-04-03T09:57:58;5.30;1.00
11091;DHT22;5599;52.210;21.046;2023-04-03T10:00:33;5.50;1.00
11091;DHT22;5599;52.210;21.046;2023-04-03T10:03:04;5.70;1.00
11091;DHT22;5599;52.210;21.046;2023-04-03T10:05:36;5.20;1.00
11091;DHT22;5599;52.210;21.046;2023-04-03T10:08:22;5.40;1.00
11091;DHT22;5599;52.210;21.046;2023-04-03T10:11:13;5.70;1.00
11091;DHT22;5599;52.210;21.046;2023-04-03T10:13:53;5.80;1.00
11091;DHT22;5599;52.210;21.046;2023-04-03T10:16:35;5.60;1.00
11091;DHT22;5599;52.210;21.046;2023-04-03T10:19:31;5.40;1.00
11091;DHT22;5599;52.210;21.046;2023-04-03T10:22:05;5.70;1.00
11091;DHT22;5599;52.210;21.046;2023-04-03T10:24:47;5.70;1.00
11091;DHT22;5599;52.210;21.046;2023-04-03T10:27:21;5.70;1.00
11091;DHT22;5599;52.210;21.046;2023-04-03T10:29:59;5.80;1.00
11091;DHT22;5599;52.210;21.046;2023-04-03T10:32:45;6.00;1.00
11091;DHT22;5599;52.210;21.046;2023-04-03T10:35:29;5.50;1.00
11091;DHT22;5599;52.210;21.046;2023-04-03T10:38:08;5.30;1.00
11091;DHT22;5599;52.210;21.046;2023-04-03T10:40:46;5.30;1.00
11091;DHT22;5599;52.210;21.046;2023-04-03T10:43:21;5.60;1.00
11091;DHT22;5599;52.210;21.046;2023-04-03T10:46:00;5.70;1.00
11091;DHT22;5599;52.210;21.046;2023-04-03T10:48:45;5.70;1.00
11091;DHT22;5599;52.210;21.046;2023-04-03T10:51:24;5.40;1.00
11091;DHT22;5599;52.210;21.046;2023-04-03T10:53:57;5.10;1.00
11091;DHT22;5599;52.210;21.046;2023-04-03T10:56:35;5.20;1.00
11091;DHT22;5599;52.210;21.046;2023-04-03T10:59:15;5.20;1.00
11091;DHT22;5599;52.210;21.046;2023-04-03T11:01:50;5.20;1.00
11091;DHT22;5599;52.210;21.046;2023-04-03T11:04:22;5.40;1.00
11091;DHT22;5599;52.210;21.046;2023-04-03T11:06:57;5.40;1.00
11091;DHT22;5599;52.210;21.046;2023-04-03T11:09:31;5.70;1.00
11091;DHT22;5599;52.210;21.046;2023-04-03T11:12:04;6.00;1.00
11091;DHT22;5599;52.210;21.046;2023-04-03T11:14:36;6.10;1.00
11091;DHT22;5599;52.210;21.046;2023-04-03T11:17:15;6.30;1.00
11091;DHT22;5599;52.210;21.046;2023-04-03T11:19:57;6.30;1.00
11091;DHT22;5599;52.210;21.046;2023-04-03T11:22:32;6.40;1.00
11091;DHT22;5599;52.210;21.046;2023-04-03T11:25:05;6.50;1.00
11091;DHT22;5599;52.210;21.046;2023-04-03T11:27:41;6.50;1.00
11091;DHT22;5599;52.210;21.046;2023-04-03T11:30:15;6.00;1.00
11091;DHT22;5599;52.210;21.046;2023-04-03T11:33:08;5.80;1.00
11091;DHT22;5599;52.210;21.046;2023-04-03T11:35:44;5.70;1.00
11091;DHT22;5599;52.210;21.046;2023-04-03T11:38:21;5.70;1.00
11091;DHT22;5599;52.210;21.046;2023-04-03T11:40:52;5.80;1.00
11091;DHT22;5599;52.210;21.046;2023-04-03T11:43:24;5.50;1.00
11091;DHT22;5599;52.210;21.046;2023-04-03T11:45:56;5.20;1.00
11091;DHT22;5599;52.210;21.046;2023-04-03T11:48:50;5.40;1.00
11091;DHT22;5599;52.210;21.046;2023-04-03T11:51:41;5.30;1.00
11091;DHT22;5599;52.210;21.046;2023-04-03T11:54:36;5.60;1.00
11091;DHT22;5599;52.210;21.046;2023-04-03T11:59:59;5.40;1.00
11091;DHT22;5599;52.210;21.046;2023-04-03T12:02:37;5.40;1.00
11091;DHT22;5599;52.210;21.046;2023-04-03T12:05:28;5.60;1.00
11091;DHT22;5599;52.210;21.046;2023-04-03T12:08:21;5.70;1.00
11091;DHT22;5599;52.210;21.046;2023-04-03T12:11:15;5.90;1.00
11091;DHT22;5599;52.210;21.046;2023-04-03T12:14:03;5.90;1.00
11091;DHT22;5599;52.210;21.046;2023-04-03T12:16:41;6.10;1.00
11091;DHT22;5599;52.210;21.046;2023-04-03T12:19:34;6.40;1.00
11091;DHT22;5599;52.210;21.046;2023-04-03T12:22:11;6.10;1.00
11091;DHT22;5599;52.210;21.046;2023-04-03T12:27:32;5.40;1.00
11091;DHT22;5599;52.210;21.046;2023-04-03T12:30:22;5.60;1.00
11091;DHT22;5599;52.210;21.046;2023-04-03T12:33:14;5.60;1.00
11091;DHT22;5599;52.210;21.046;2023-04-03T12:35:57;5.70;1.00
11091;DHT22;5599;52.210;21.046;2023-04-03T12:38:41;5.80;1.00
11091;DHT22;5599;52.210;21.046;2023-04-03T12:41:22;5.50;99.90
11091;DHT22;5599;52.210;21.046;2023-04-03T12:44:06;5.20;99.90
11091;DHT22;5599;52.210;21.046;2023-04-03T12:46:42;5.50;99.90
11091;DHT22;5599;52.210;21.046;2023-04-03T12:49:24;5.70;95.10
11091;DHT22;5599;52.210;21.046;2023-04-03T12:51:56;5.80;99.90
11091;DHT22;5599;52.210;21.046;2023-04-03T12:54:31;5.90;99.90
11091;DHT22;5599;52.210;21.046;2023-04-03T12:57:19;5.90;99.90
11091;DHT22;5599;52.210;21.046;2023-04-03T12:59:49;5.80;99.90
11091;DHT22;5599;52.210;21.046;2023-04-03T13:02:23;6.00;85.40
11091;DHT22;5599;52.210;21.046;2023-04-03T13:04:55;6.20;99.90
11091;DHT22;5599;52.210;21.046;2023-04-03T13:07:29;6.30;99.90
11091;DHT22;5599;52.210;21.046;2023-04-03T13:10:13;6.10;99.90
11091;DHT22;5599;52.210;21.046;2023-04-03T13:12:48;5.80;99.90
11091;DHT22;5599;52.210;21.046;2023-04-03T13:15:20;6.00;99.90
11091;DHT22;5599;52.210;21.046;2023-04-03T13:17:50;6.40;99.90
11091;DHT22;5599;52.210;21.046;2023-04-03T13:20:24;6.50;99.90
11091;DHT22;5599;52.210;21.046;2023-04-03T13:22:57;6.60;99.90
11091;DHT22;5599;52.210;21.046;2023-04-03T13:25:32;6.30;99.90
11091;DHT22;5599;52.210;21.046;2023-04-03T13:28:05;6.10;99.90
11091;DHT22;5599;52.210;21.046;2023-04-03T13:30:54;6.00;99.90
11091;DHT22;5599;52.210;21.046;2023-04-03T13:33:25;5.70;99.90
11091;DHT22;5599;52.210;21.046;2023-04-03T13:35:56;5.60;99.90
11091;DHT22;5599;52.210;21.046;2023-04-03T13:38:28;5.50;99.90
11091;DHT22;5599;52.210;21.046;2023-04-03T13:41:03;5.60;99.90
11091;DHT22;5599;52.210;21.046;2023-04-03T13:43:50;5.60;99.90
11091;DHT22;5599;52.210;21.046;2023-04-03T13:46:26;5.60;99.90
11091;DHT22;5599;52.210;21.046;2023-04-03T13:48:56;5.60;99.90
11091;DHT22;5599;52.210;21.046;2023-04-03T13:51:28;5.50;99.90
11091;DHT22;5599;52.210;21.046;2023-04-03T13:54:00;5.60;99.90
11091;DHT22;5599;52.210;21.046;2023-04-03T13:56:35;5.70;99.90
11091;DHT22;5599;52.210;21.046;2023-04-03T13:59:23;5.70;99.90
11091;DHT22;5599;52.210;21.046;2023-04-03T14:01:57;5.80;99.90
11091;DHT22;5599;52.210;21.046;2023-04-03T14:04:47;5.90;99.90
11091;DHT22;5599;52.210;21.046;2023-04-03T14:07:17;6.10;99.90
11091;DHT22;5599;52.210;21.046;2023-04-03T14:09:47;6.20;99.90
11091;DHT22;5599;52.210;21.046;2023-04-03T14:12:25;5.90;99.90
11091;DHT22;5599;52.210;21.046;2023-04-03T14:14:59;5.70;99.90
11091;DHT22;5599;52.210;21.046;2023-04-03T14:17:29;5.70;99.90
11091;DHT22;5599;52.210;21.046;2023-04-03T14:19:59;5.80;99.90
11091;DHT22;5599;52.210;21.046;2023-04-03T14:22:31;5.90;99.90
11091;DHT22;5599;52.210;21.046;2023-04-03T14:25:01;6.10;99.90
11091;DHT22;5599;52.210;21.046;2023-04-03T14:27:40;6.10;99.90
11091;DHT22;5599;52.210;21.046;2023-04-03T14:30:16;6.20;99.90
11091;DHT22;5599;52.210;21.046;2023-04-03T14:32:46;6.10;99.90
11091;DHT22;5599;52.210;21.046;2023-04-03T14:35:16;6.00;99.90
11091;DHT22;5599;52.210;21.046;2023-04-03T14:37:47;6.00;99.90
11091;DHT22;5599;52.210;21.046;2023-04-03T14:40:20;6.00;99.90
11091;DHT22;5599;52.210;21.046;2023-04-03T14:42:52;6.00;99.90
11091;DHT22;5599;52.210;21.046;2023-04-03T14:45:23;6.00;99.90
11091;DHT22;5599;52.210;21.046;2023-04-03T14:47:55;6.00;99.90
11091;DHT22;5599;52.210;21.046;2023-04-03T14:50:27;5.80;99.90
11091;DHT22;5599;52.210;21.046;2023-04-03T14:52:58;5.80;99.90
11091;DHT22;5599;52.210;21.046;2023-04-03T14:55:28;6.00;99.90
11091;DHT22;5599;52.210;21.046;2023-04-03T14:57:59;6.10;99.90
11091;DHT22;5599;52.210;21.046;2023-04-03T15:00:29;6.10;99.90
11091;DHT22;5599;52.210;21.046;2023-04-03T15:02:58;6.20;99.90
11091;DHT22;5599;52.210;21.046;2023-04-03T15:05:28;6.20;99.90
11091;DHT22;5599;52.210;21.046;2023-04-03T15:07:58;6.10;99.90
11091;DHT22;5599;52.210;21.046;2023-04-03T15:10:30;6.10;99.90
11091;DHT22;5599;52.210;21.046;2023-04-03T15:13:02;6.00;99.90
11091;DHT22;5599;52.210;21.046;2023-04-03T15:15:33;6.00;99.90
11091;DHT22;5599;52.210;21.046;2023-04-03T15:18:04;6.00;99.90
11091;DHT22;5599;52.210;21.046;2023-04-03T15:20:34;5.90;99.90
11091;DHT22;5599;52.210;21.046;2023-04-03T15:23:05;5.80;99.90
11091;DHT22;5599;52.210;21.046;2023-04-03T15:25:35;5.90;99.90
11091;DHT22;5599;52.210;21.046;2023-04-03T15:28:08;5.80;99.90
11091;DHT22;5599;52.210;21.046;2023-04-03T15:30:39;5.60;99.90
11091;DHT22;5599;52.210;21.046;2023-04-03T15:33:11;5.50;99.90
11091;DHT22;5599;52.210;21.046;2023-04-03T15:35:41;5.50;99.90
11091;DHT22;5599;52.210;21.046;2023-04-03T15:38:10;5.50;99.90
11091;DHT22;5599;52.210;21.046;2023-04-03T15:40:39;5.60;99.90
11091;DHT22;5599;52.210;21.046;2023-04-03T15:43:11;5.60;99.90
11091;DHT22;5599;52.210;21.046;2023-04-03T15:45:40;5.60;99.90
11091;DHT22;5599;52.210;21.046;2023-04-03T15:48:11;5.50;99.90
11091;DHT22;5599;52.210;21.046;2023-04-03T15:50:41;5.40;99.90
11091;DHT22;5599;52.210;21.046;2023-04-03T15:53:10;5.40;99.90
11091;DHT22;5599;52.210;21.046;2023-04-03T15:55:40;5.40;99.90
11091;DHT22;5599;52.210;21.046;2023-04-03T15:58:11;5.40;99.90
11091;DHT22;5599;52.210;21.046;2023-04-03T16:00:40;5.40;99.90
11091;DHT22;5599;52.210;21.046;2023-04-03T16:03:11;5.40;99.90
11091;DHT22;5599;52.210;21.046;2023-04-03T16:05:42;5.40;99.90
11091;DHT22;5599;52.210;21.046;2023-04-03T16:08:12;5.50;99.90
11091;DHT22;5599;52.210;21.046;2023-04-03T16:10:41;5.50;99.90
11091;DHT22;5599;52.210;21.046;2023-04-03T16:13:14;5.50;99.90
11091;DHT22;5599;52.210;21.046;2023-04-03T16:15:44;5.50;99.90
11091;DHT22;5599;52.210;21.046;2023-04-03T16:18:13;5.50;99.90
11091;DHT22;5599;52.210;21.046;2023-04-03T16:20:43;5.50;99.90
11091;DHT22;5599;52.210;21.046;2023-04-03T16:23:12;5.40;99.90
11091;DHT22;5599;52.210;21.046;2023-04-03T16:25:42;5.40;99.90
11091;DHT22;5599;52.210;21.046;2023-04-03T16:28:16;5.50;99.90
11091;DHT22;5599;52.210;21.046;2023-04-03T16:30:47;5.60;99.90
11091;DHT22;5599;52.210;21.046;2023-04-03T16:33:17;5.40;99.90
11091;DHT22;5599;52.210;21.046;2023-04-03T16:35:49;5.20;99.90
11091;DHT22;5599;52.210;21.046;2023-04-03T16:38:19;5.10;99.90
11091;DHT22;5599;52.210;21.046;2023-04-03T16:40:50;5.00;99.90
11091;DHT22;5599;52.210;21.046;2023-04-03T16:43:22;5.00;99.90
11091;DHT22;5599;52.210;21.046;2023-04-03T16:45:52;4.90;99.90
11091;DHT22;5599;52.210;21.046;2023-04-03T16:48:21;4.90;99.90
11091;DHT22;5599;52.210;21.046;2023-04-03T16:50:52;5.00;99.90